Gabriels, New York
Current Conditions -  °F | °C
As of 8:51 AM on Wednesday 28 Jan 2015 (Local Time) from KSLK Reporting Station
Clear Clear  
Wind Chill: -9°   Ceiling: Unl
Heat Index:   Visibility: 10mi
Dew Point: -7°   Wind: 5mph
Humidity: 69%   Direction: NA
Pressure: 30"   Gusts: NA
Location:  44.43°N, 74.18°W
Report Text: KSLK 281351Z AUTO VRB04KT 10SM CLR M17/M22 A3000 RMK AO2 SLP201 T11721217
Loading
Personal Weather Stations






























Interactive Weather Map New forecast layout! Learn more

10-Day Weather Forecast

Advertisements
Track Severe Weather on mobile